Toledo, OH

10:38 AM EDT on September 20, 2014 (GMT -0400)
Lambertville | Change Station
CLOSE
Current Station
Airport
Location: Lambertville,
Elevation: 666 ft
Nearby Weather Stations

Elev 666 ft 41.74 °N, 83.66 °W | Updated 23 minutes ago

Clear
Clear
64 °F
Feels Like 64 °F
N
8
Wind Variable Wind from SSW

Today
High -- | Low -- °F
--% Chance of Precip.
Yesterday
High -- | Low -- °F
Precip. -- in
7:19 AM 7:34 PM
Waning Crescent, 12% visible
Pressure 30.00 in
Visibility 10.0 miles
Clouds Clear
Dew Point 55 °F
Humidity 73%
Rainfall 0.00 in
Snow Depth Not available.
UV 3 out of 12
Pollen 4.80 out of 12
Air Quality Not available.
Flu Activity Not available.
METAR KDUH 201415Z AUTO 21007KT 10SM CLR 18/13 A3000 RMK AO2

More Conditions Fewer Conditions

Pressure 30.00 in
Visibility 10.0 miles
Clouds Clear
Dew Point 55 °F
Humidity 73%
Rainfall 0.00 in
Snow Depth Not available.
UV 3 out of 12
Pollen 4.80 out of 12
Air Quality Not available.
Flu Activity Not available.
METAR KDUH 201415Z AUTO 21007KT 10SM CLR 18/13 A3000 RMK AO2

More Conditions Fewer Conditions

10-Day Weather Forecast

Almanac

Astronomy

Sep. 20, 2014 Rise Set
Actual Time 7:19 AM EDT 7:34 PM EDT
Civil Twilight 6:51 AM EDT 8:02 PM EDT
Nautical Twilight 6:19 AM EDT 8:35 PM EDT
Astronomical Twilight 5:45 AM EDT 9:08 PM EDT
Moon 3:55 AM EDT 5:39 PM EDT
Length of Visible Light 13h 10m
Length of Day
12h 15m
Tomorrow will be 2m 46s shorter.
Waning Crescent, 12% of the Moon is Illuminated
Today
Waning Crescent
Sep 24
New
Oct 1
First Quarter
Oct 8
Full
Oct 15
Last Quarter

Today's Extremes

State Highs State Lows

Community

WunderPhotos

Upload Photos

1,754,872 photos uploaded!

WunderBlogs® & News

Nearby

Snow Depth

Station Depth Elevation
No new snow has been reported.

Earthquake Activity

City Distance Mag. Time & Date
No recent earthquake activity has been reported nearby.
Minimum magnitude displayed is 2.5.

Coastal Water Temperatures

Place Temperature
Marblehead, OH 64.9 °F

Nearby Weather Stations